createdAt,value
2018-11-03T00:00:44.884Z,101325.59
2018-11-03T00:06:03.449Z,101326.06
2018-11-03T00:11:22.002Z,101319.25
2018-11-03T00:16:40.500Z,101336.23
2018-11-03T00:21:59.052Z,101334.72
2018-11-03T00:27:17.555Z,101333.48
2018-11-03T00:32:36.068Z,101328.80
2018-11-03T00:37:54.612Z,101319.31
2018-11-03T00:43:13.100Z,101331.64
2018-11-03T00:48:31.650Z,101322.77
2018-11-03T00:53:50.257Z,101322.02
2018-11-03T00:59:08.815Z,101318.53
2018-11-03T01:04:27.412Z,101316.22
2018-11-03T01:09:45.951Z,101321.17
2018-11-03T01:15:04.638Z,101323.69
2018-11-03T01:20:23.207Z,101331.00
2018-11-03T01:25:41.726Z,101334.55
2018-11-03T01:31:00.260Z,101320.27
2018-11-03T01:36:18.904Z,101316.39
2018-11-03T01:41:37.451Z,101314.39
2018-11-03T01:46:55.951Z,101316.70
2018-11-03T01:52:14.487Z,101318.84
2018-11-03T01:57:33.018Z,101314.63
2018-11-03T02:02:51.530Z,101314.31
2018-11-03T02:08:10.082Z,101309.77
2018-11-03T02:13:28.573Z,101322.64
2018-11-03T02:18:47.126Z,101322.02
2018-11-03T02:24:06.153Z,101320.11
2018-11-03T02:29:24.687Z,101321.99
2018-11-03T02:34:43.234Z,101323.17
2018-11-03T02:40:01.791Z,101330.55
2018-11-03T02:45:20.351Z,101340.95
2018-11-03T02:50:38.883Z,101339.39
2018-11-03T02:55:57.461Z,101334.08
2018-11-03T03:01:16.043Z,101334.47
2018-11-03T03:06:34.610Z,101327.09
2018-11-03T03:11:53.222Z,101326.70
2018-11-03T03:17:11.728Z,101328.80
2018-11-03T03:22:30.200Z,101332.30
2018-11-03T03:27:48.784Z,101335.09
2018-11-03T03:33:07.335Z,101336.92
2018-11-03T03:38:25.857Z,101335.62
2018-11-03T03:43:44.318Z,101333.39
2018-11-03T03:49:02.804Z,101333.47
2018-11-03T03:54:21.327Z,101336.59
2018-11-03T03:59:39.932Z,101346.22
2018-11-03T04:04:58.467Z,101344.73
2018-11-03T04:10:16.974Z,101351.27
2018-11-03T04:15:35.497Z,101343.20
2018-11-03T04:20:53.999Z,101341.30
2018-11-03T04:26:12.508Z,101336.73
2018-11-03T04:31:31.020Z,101330.97
2018-11-03T04:36:49.539Z,101338.37
2018-11-03T04:42:08.068Z,101338.34
2018-11-03T04:47:27.164Z,101338.59
2018-11-03T04:52:45.730Z,101346.25
2018-11-03T04:58:04.232Z,101347.25
2018-11-03T05:03:22.792Z,101337.97
2018-11-03T05:08:41.359Z,101342.03
2018-11-03T05:13:59.882Z,101334.10
2018-11-03T05:19:18.395Z,101333.30
2018-11-03T05:24:36.943Z,101340.30
2018-11-03T05:29:55.590Z,101343.81
2018-11-03T05:35:14.191Z,101337.20
2018-11-03T05:40:32.754Z,101342.61
2018-11-03T05:45:51.296Z,101344.19
2018-11-03T05:51:09.943Z,101350.14
2018-11-03T05:56:28.504Z,101359.91
2018-11-03T06:01:47.139Z,101366.03
2018-11-03T06:07:05.718Z,101364.09
2018-11-03T06:12:24.214Z,101374.03
2018-11-03T06:17:42.747Z,101374.84
2018-11-03T06:23:01.432Z,101369.32
2018-11-03T06:28:20.032Z,101376.16
2018-11-03T06:33:38.634Z,101388.59
2018-11-03T06:39:03.853Z,101384.37
2018-11-03T06:44:22.251Z,101400.16
2018-11-03T06:49:40.793Z,101398.23
2018-11-03T06:54:59.291Z,101396.92
2018-11-03T07:00:17.831Z,101400.27
2018-11-03T07:05:37.112Z,101398.86
2018-11-03T07:10:55.744Z,101406.02
2018-11-03T07:16:14.275Z,101403.73
2018-11-03T07:21:33.116Z,101409.16
2018-11-03T07:26:51.579Z,101407.56
2018-11-03T07:32:10.141Z,101404.50
2018-11-03T07:37:28.648Z,101395.78
2018-11-03T07:42:47.290Z,101398.62
2018-11-03T07:48:06.506Z,101396.98
2018-11-03T07:53:25.009Z,101397.99
2018-11-03T07:58:43.659Z,101395.19
2018-11-03T08:04:02.398Z,101395.80
2018-11-03T08:09:20.968Z,101379.70
2018-11-03T08:14:39.626Z,101384.10
2018-11-03T08:19:58.151Z,101382.09
2018-11-03T08:25:16.726Z,101385.17
2018-11-03T08:30:35.249Z,101379.47
2018-11-03T08:35:53.772Z,101364.97
2018-11-03T08:41:12.317Z,101362.00
2018-11-03T08:46:30.870Z,101354.12
2018-11-03T08:51:49.403Z,101361.17
2018-11-03T08:57:07.874Z,101362.36
2018-11-03T09:02:26.427Z,101358.56
2018-11-03T09:07:44.935Z,101361.16
2018-11-03T09:13:03.547Z,101366.87
2018-11-03T09:18:22.122Z,101360.98
2018-11-03T09:23:41.444Z,101359.80
2018-11-03T09:29:00.093Z,101345.53
2018-11-03T09:34:18.663Z,101347.36
2018-11-03T09:39:37.235Z,101339.91
2018-11-03T09:44:55.776Z,101345.77
2018-11-03T09:50:15.409Z,101342.44
2018-11-03T09:55:33.940Z,101344.25
2018-11-03T10:00:52.510Z,101337.28
2018-11-03T10:06:11.798Z,101332.87
2018-11-03T10:11:30.288Z,101329.94
2018-11-03T10:16:48.856Z,101328.72
2018-11-03T10:22:07.408Z,101323.11
2018-11-03T10:27:25.905Z,101320.18
2018-11-03T10:32:44.571Z,101314.30
2018-11-03T10:38:03.122Z,101314.81
2018-11-03T10:43:21.659Z,101311.17
2018-11-03T10:48:40.243Z,101304.94
2018-11-03T10:53:58.751Z,101295.03
2018-11-03T10:59:17.271Z,101292.00
2018-11-03T11:04:41.110Z,101289.84
2018-11-03T11:10:04.752Z,101286.45
2018-11-03T11:15:23.292Z,101283.77
2018-11-03T11:20:41.787Z,101277.73
2018-11-03T11:26:00.373Z,101273.98
2018-11-03T11:31:19.004Z,101273.23
2018-11-03T11:36:37.473Z,101262.12
2018-11-03T11:41:55.986Z,101253.23
2018-11-03T11:47:14.626Z,101248.16
2018-11-03T11:52:33.234Z,101248.45
2018-11-03T11:57:51.947Z,101233.77
2018-11-03T12:03:10.628Z,101226.98
2018-11-03T12:08:29.127Z,101232.69
2018-11-03T12:13:47.626Z,101225.10
2018-11-03T12:19:06.309Z,101221.52
2018-11-03T12:24:25.482Z,101225.48
2018-11-03T12:29:43.968Z,101218.97
2018-11-03T12:35:03.360Z,101213.09
2018-11-03T12:40:21.880Z,101206.95
2018-11-03T12:45:40.376Z,101199.20
2018-11-03T12:50:59.003Z,101192.91
2018-11-03T12:56:17.507Z,101191.42
2018-11-03T13:01:36.114Z,101181.84
2018-11-03T13:06:54.591Z,101178.68
2018-11-03T13:12:13.146Z,101156.02
2018-11-03T13:17:31.623Z,101159.17
2018-11-03T13:22:50.300Z,101161.63
2018-11-03T13:33:26.859Z,101143.94
2018-11-03T13:38:45.321Z,101142.73
2018-11-03T13:44:03.838Z,101139.09
2018-11-03T13:49:22.295Z,101134.98
2018-11-03T13:54:40.765Z,101131.66
2018-11-03T13:59:59.248Z,101132.37
2018-11-03T14:05:17.862Z,101128.41
2018-11-03T14:10:36.335Z,101119.59
2018-11-03T14:15:54.839Z,101106.84
2018-11-03T14:21:13.423Z,101106.58
2018-11-03T14:26:31.979Z,101098.49
2018-11-03T14:31:50.525Z,101086.93
2018-11-03T14:37:09.669Z,101081.94
2018-11-03T14:42:28.197Z,101076.24
2018-11-03T14:47:46.723Z,101073.45
2018-11-03T14:53:05.292Z,101066.59
2018-11-03T14:58:23.817Z,101058.25
2018-11-03T15:03:42.761Z,101053.08
2018-11-03T15:09:01.323Z,101044.56
2018-11-03T15:14:19.965Z,101033.52
2018-11-03T15:19:38.634Z,101032.79
2018-11-03T15:24:57.198Z,101025.73
2018-11-03T15:30:15.979Z,101026.38
2018-11-03T15:35:34.515Z,101018.60
2018-11-03T15:40:53.602Z,101014.64
2018-11-03T15:46:12.112Z,101004.72
2018-11-03T15:51:30.610Z,100995.97
2018-11-03T15:56:49.215Z,100995.98
2018-11-03T16:02:07.740Z,100992.95
2018-11-03T16:07:26.279Z,100989.92
2018-11-03T16:12:44.880Z,100982.69
2018-11-03T16:18:03.410Z,100981.02
2018-11-03T16:23:22.130Z,100989.67
2018-11-03T16:28:41.384Z,100983.06
2018-11-03T16:34:00.596Z,100981.52
2018-11-03T16:39:19.144Z,100978.38
2018-11-03T16:44:37.780Z,100977.11
2018-11-03T16:49:56.267Z,100984.74
2018-11-03T16:55:15.494Z,100988.12
2018-11-03T17:00:33.952Z,100980.23
2018-11-03T17:05:52.493Z,100978.66
2018-11-03T17:11:11.783Z,100973.80
2018-11-03T17:16:30.347Z,100967.23
2018-11-03T17:21:48.870Z,100958.99
2018-11-03T17:27:07.334Z,100962.09
2018-11-03T17:32:25.887Z,100953.94
2018-11-03T17:37:44.875Z,100948.16
2018-11-03T17:43:03.427Z,100949.19
2018-11-03T17:48:21.950Z,100950.77
2018-11-03T17:53:40.529Z,100955.56
2018-11-03T17:58:59.060Z,100950.73
2018-11-03T18:04:17.725Z,100944.95
2018-11-03T18:09:36.928Z,100942.11
2018-11-03T18:14:55.499Z,100939.36
2018-11-03T18:20:13.981Z,100929.55
2018-11-03T18:25:32.613Z,100918.64
2018-11-03T18:30:51.186Z,100912.55
2018-11-03T18:36:09.815Z,100910.83
2018-11-03T18:41:28.543Z,100911.09
2018-11-03T18:46:47.232Z,100908.52
2018-11-03T18:52:05.943Z,100901.87
2018-11-03T18:57:24.435Z,100896.44
2018-11-03T19:02:42.934Z,100896.00
2018-11-03T19:08:01.529Z,100887.11
2018-11-03T19:13:20.111Z,100891.92
2018-11-03T19:18:38.666Z,100883.74
2018-11-03T19:23:57.274Z,100885.79
2018-11-03T19:29:15.772Z,100886.53
2018-11-03T19:34:34.384Z,100879.81
2018-11-03T19:39:53.057Z,100869.59
2018-11-03T19:45:12.340Z,100864.50
2018-11-03T19:50:30.911Z,100867.13
2018-11-03T19:55:49.591Z,100862.07
2018-11-03T20:01:08.052Z,100859.48
2018-11-03T20:06:26.569Z,100854.39
2018-11-03T20:11:45.138Z,100852.75
2018-11-03T20:17:03.681Z,100848.83
2018-11-03T20:22:22.218Z,100835.80
2018-11-03T20:27:40.815Z,100832.98
2018-11-03T20:32:59.366Z,100827.27
2018-11-03T20:38:17.897Z,100820.13
2018-11-03T20:43:36.524Z,100810.98
2018-11-03T20:48:55.123Z,100807.89
2018-11-03T20:54:13.644Z,100799.95
2018-11-03T20:59:32.174Z,100796.27
2018-11-03T21:04:50.684Z,100801.66
2018-11-03T21:10:09.288Z,100811.52
2018-11-03T21:15:27.965Z,100790.03
2018-11-03T21:20:46.670Z,100783.11
2018-11-03T21:26:05.245Z,100778.05
2018-11-03T21:31:23.739Z,100777.92
2018-11-03T21:36:42.255Z,100774.47
2018-11-03T21:42:01.029Z,100761.05
2018-11-03T21:47:19.607Z,100754.02
2018-11-03T21:52:38.144Z,100741.56
2018-11-03T21:57:56.653Z,100732.30
2018-11-03T22:03:15.238Z,100725.19
2018-11-03T22:08:33.731Z,100716.02
2018-11-03T22:13:52.452Z,100717.83
2018-11-03T22:19:10.990Z,100704.63
2018-11-03T22:24:29.880Z,100697.63
2018-11-03T22:29:48.486Z,100687.04
2018-11-03T22:35:07.587Z,100676.97
2018-11-03T22:40:26.140Z,100677.67
2018-11-03T22:45:44.661Z,100668.53
2018-11-03T22:51:03.245Z,100662.23
2018-11-03T22:56:21.680Z,100651.91
2018-11-03T23:01:41.291Z,100642.07
2018-11-03T23:07:01.279Z,100622.59
2018-11-03T23:12:19.764Z,100621.77
2018-11-03T23:17:38.279Z,100616.55
2018-11-03T23:22:56.950Z,100614.66
2018-11-03T23:28:15.488Z,100605.63
2018-11-03T23:33:34.116Z,100596.60
2018-11-03T23:38:52.647Z,100592.59
2018-11-03T23:44:11.476Z,100588.06
2018-11-03T23:49:29.957Z,100581.56
2018-11-03T23:54:48.507Z,100575.36
